Time;durP1;ratioP1;P1;durP2;ratioP2;P2;SDS_P1;SDS_P2;PMS_P1;PMS_P2;Temp;Humidity;BMP_temperature;BMP_pressure;BME280_temperature;BME280_humidity;BME280_pressure;Samples;Min_cycle;Max_cycle;Signal;HPM_P1;HPM_P2
2022/09/05 00:01:41;;;;;;;6.03;3.05;;;20.10;72.60;;;;;;4992038;28;20108;-62
2022/09/05 00:04:28;;;;;;;10.60;3.85;;;20.10;72.70;;;;;;4994300;28;20054;-62
2022/09/05 00:07:22;;;;;;;8.73;3.67;;;20.00;72.70;;;;;;4993643;28;20365;-62
2022/09/05 00:09:58;;;;;;;4.47;2.85;;;20.00;72.90;;;;;;4982400;28;20045;-62
2022/09/05 00:12:25;;;;;;;4.00;2.95;;;20.00;73.00;;;;;;4991042;28;20128;-62
2022/09/05 00:14:54;;;;;;;10.48;3.15;;;19.90;73.00;;;;;;4957416;28;20713;-61
2022/09/05 00:17:30;;;;;;;4.88;3.10;;;19.90;73.10;;;;;;4976793;28;20527;-62
2022/09/05 00:20:21;;;;;;;8.38;3.10;;;19.90;73.20;;;;;;4970031;28;20046;-62
2022/09/05 00:22:55;;;;;;;6.65;3.17;;;19.90;73.30;;;;;;4994746;28;20053;-62
2022/09/05 00:25:40;;;;;;;5.15;3.20;;;19.90;73.50;;;;;;4976620;28;20045;-61
2022/09/05 00:28:36;;;;;;;3.35;3.05;;;19.80;73.60;;;;;;4978746;28;20186;-62
2022/09/05 00:31:14;;;;;;;4.32;3.30;;;19.80;73.60;;;;;;4972799;28;20476;-62
2022/09/05 00:34:02;;;;;;;4.85;3.47;;;19.80;73.80;;;;;;4993194;28;20058;-62
2022/09/05 00:36:43;;;;;;;5.03;3.45;;;19.70;73.80;;;;;;4979594;28;20049;-62
2022/09/05 00:39:34;;;;;;;6.40;3.65;;;19.80;73.90;;;;;;4991460;28;20412;-62
2022/09/05 00:42:22;;;;;;;5.72;3.53;;;19.70;73.80;;;;;;4993621;28;20108;-62
2022/09/05 00:45:00;;;;;;;8.27;3.58;;;19.70;74.00;;;;;;4988932;28;20042;-61
2022/09/05 00:47:41;;;;;;;5.25;3.80;;;19.60;73.90;;;;;;4972133;28;20045;-61
2022/09/05 00:50:23;;;;;;;5.22;3.90;;;19.60;74.10;;;;;;4993279;28;20050;-61
2022/09/05 00:53:05;;;;;;;4.93;3.67;;;19.60;74.10;;;;;;4966268;28;20046;-62
2022/09/05 00:55:46;;;;;;;6.55;4.07;;;19.60;74.50;;;;;;4975200;28;21961;-62
2022/09/05 00:58:38;;;;;;;6.18;3.92;;;19.50;74.30;;;;;;4991676;28;20093;-62
2022/09/05 01:01:22;;;;;;;7.47;4.18;;;19.60;74.60;;;;;;4976332;28;20080;-62
2022/09/05 01:04:16;;;;;;;7.72;4.05;;;19.50;74.40;;;;;;4971982;28;20041;-62
2022/09/05 01:07:17;;;;;;;7.68;4.05;;;19.50;74.50;;;;;;4974545;28;20411;-62
2022/09/05 01:10:05;;;;;;;5.50;3.80;;;19.50;74.70;;;;;;4971778;28;20054;-62
2022/09/05 01:12:56;;;;;;;8.07;4.10;;;19.50;74.60;;;;;;4973310;28;20057;-62
2022/09/05 01:15:29;;;;;;;6.97;4.40;;;19.50;74.70;;;;;;4972393;28;20053;-62
2022/09/05 01:17:55;;;;;;;7.22;4.55;;;19.50;74.90;;;;;;4990044;28;20131;-62
2022/09/05 01:20:48;;;;;;;7.05;4.32;;;19.40;74.90;;;;;;4974553;28;20049;-61
2022/09/05 01:23:33;;;;;;;6.38;4.10;;;19.40;75.50;;;;;;4974758;28;20960;-61
2022/09/05 01:26:30;;;;;;;9.77;4.40;;;19.40;75.00;;;;;;4957537;28;20049;-62
2022/09/05 01:29:03;;;;;;;9.30;4.60;;;19.40;75.10;;;;;;4989811;28;20045;-61
2022/09/05 01:32:27;;;;;;;5.88;4.25;;;19.40;75.10;;;;;;4972326;28;20116;-62
2022/09/05 01:35:27;;;;;;;5.65;4.35;;;19.30;74.90;;;;;;4900247;28;20062;-61
2022/09/05 01:38:18;;;;;;;5.80;4.03;;;19.40;75.20;;;;;;4987408;28;20049;-62
2022/09/05 01:41:22;;;;;;;12.15;4.68;;;19.30;75.10;;;;;;4986294;28;20060;-62
2022/09/05 01:44:01;;;;;;;11.73;4.60;;;19.30;75.20;;;;;;4993490;28;20511;-62
2022/09/05 01:46:51;;;;;;;7.55;4.70;;;19.30;75.40;;;;;;4991467;28;20159;-62
2022/09/05 01:49:52;;;;;;;6.10;4.75;;;19.30;75.40;;;;;;4988738;28;20511;-62
2022/09/05 01:52:49;;;;;;;5.55;4.30;;;19.30;75.50;;;;;;4991373;28;20100;-62
2022/09/05 01:55:38;;;;;;;6.88;4.50;;;19.30;75.60;;;;;;4988683;28;20090;-62
2022/09/05 01:58:13;;;;;;;6.43;4.75;;;19.20;75.60;;;;;;4978010;28;20082;-62
2022/09/05 02:00:45;;;;;;;7.43;4.25;;;19.20;75.70;;;;;;4974532;28;21266;-62
2022/09/05 02:03:45;;;;;;;7.13;4.22;;;19.20;75.90;;;;;;4967119;28;21436;-62
2022/09/05 02:06:43;;;;;;;8.40;5.00;;;19.20;75.90;;;;;;4994127;28;20155;-62
2022/09/05 02:09:21;;;;;;;5.18;4.45;;;19.10;76.00;;;;;;4991446;28;20144;-62
2022/09/05 02:11:58;;;;;;;7.75;4.20;;;19.10;76.00;;;;;;4989054;28;20459;-62
2022/09/05 02:14:37;;;;;;;9.82;5.15;;;19.10;76.20;;;;;;4992600;28;20106;-62
2022/09/05 02:17:33;;;;;;;9.30;5.07;;;19.10;76.30;;;;;;4990831;28;20534;-62
2022/09/05 02:20:43;;;;;;;10.57;4.15;;;19.00;76.30;;;;;;4968548;28;20527;-62
2022/09/05 02:23:23;;;;;;;7.25;4.80;;;19.00;76.50;;;;;;4988904;28;20056;-62
2022/09/05 02:25:58;;;;;;;6.50;4.20;;;19.00;76.70;;;;;;4993622;28;20084;-61
2022/09/05 02:28:35;;;;;;;8.93;4.95;;;18.90;76.70;;;;;;4998166;28;20076;-62
2022/09/05 02:31:14;;;;;;;10.70;4.20;;;18.90;76.90;;;;;;4993333;28;20740;-61
2022/09/05 02:33:54;;;;;;;9.23;4.70;;;18.90;77.00;;;;;;4989561;28;20046;-62
2022/09/05 02:36:43;;;;;;;7.60;4.45;;;18.80;77.10;;;;;;4973693;28;20057;-62
2022/09/05 02:39:25;;;;;;;7.72;4.47;;;18.80;77.00;;;;;;4990323;28;20048;-62
2022/09/05 02:42:21;;;;;;;5.72;4.63;;;18.80;77.30;;;;;;4993843;28;20073;-62
2022/09/05 02:45:04;;;;;;;5.07;4.55;;;18.80;77.50;;;;;;4994287;28;20042;-61
2022/09/05 02:48:08;;;;;;;10.40;4.65;;;18.70;77.60;;;;;;4967995;28;20049;-61
2022/09/05 02:51:15;;;;;;;5.45;4.72;;;18.70;77.80;;;;;;4988737;28;20054;-62
2022/09/05 02:53:50;;;;;;;6.47;4.60;;;18.60;78.10;;;;;;4995880;28;20489;-61
2022/09/05 02:56:50;;;;;;;5.75;4.50;;;18.60;78.30;;;;;;4992116;28;20049;-62
2022/09/05 02:59:30;;;;;;;5.57;4.32;;;18.50;78.50;;;;;;4997748;28;20053;-62
2022/09/05 03:02:33;;;;;;;6.53;4.55;;;18.40;78.60;;;;;;4991342;28;20124;-61
2022/09/05 03:05:11;;;;;;;8.52;4.30;;;18.40;78.70;;;;;;4997031;28;20046;-61
2022/09/05 03:07:46;;;;;;;7.97;4.68;;;18.40;79.20;;;;;;4996697;28;20050;-61
2022/09/05 03:10:39;;;;;;;5.60;4.35;;;18.30;79.20;;;;;;4997224;28;20077;-61
2022/09/05 03:13:36;;;;;;;5.20;4.28;;;18.30;79.50;;;;;;4997118;28;20054;-62
2022/09/05 03:16:04;;;;;;;8.20;4.57;;;18.20;79.40;;;;;;4975209;28;20092;-62
2022/09/05 03:19:11;;;;;;;7.68;4.20;;;18.20;79.60;;;;;;4998277;28;20052;-61
2022/09/05 03:21:55;;;;;;;4.88;4.40;;;18.20;79.90;;;;;;4991310;28;20052;-61
2022/09/05 03:24:58;;;;;;;6.32;4.50;;;18.10;79.90;;;;;;4996734;28;20140;-62
2022/09/05 03:28:02;;;;;;;11.65;4.50;;;18.10;80.00;;;;;;4975489;28;20084;-62
2022/09/05 03:30:53;;;;;;;6.20;4.65;;;18.10;80.20;;;;;;4980054;28;20599;-62
2022/09/05 03:33:31;;;;;;;7.45;4.78;;;18.10;80.10;;;;;;4996053;28;20167;-62
2022/09/05 03:36:16;;;;;;;6.00;4.10;;;18.00;80.30;;;;;;4993931;28;20080;-61
2022/09/05 03:39:01;;;;;;;7.28;4.40;;;18.00;80.40;;;;;;4975362;28;20120;-61
2022/09/05 03:41:48;;;;;;;7.00;5.00;;;18.00;80.50;;;;;;4969601;28;20046;-61
2022/09/05 03:44:33;;;;;;;5.10;4.60;;;18.00;80.60;;;;;;4995562;28;20550;-62
2022/09/05 03:47:02;;;;;;;6.78;4.75;;;17.90;80.70;;;;;;4970542;28;20587;-61
2022/09/05 03:49:50;;;;;;;5.30;4.60;;;17.90;80.80;;;;;;4968753;28;20099;-61
2022/09/05 03:53:04;;;;;;;5.72;4.80;;;17.90;80.80;;;;;;4987737;28;20563;-61
2022/09/05 03:55:30;;;;;;;;;;;17.90;80.90;;;;;;4954088;28;20091;-61
2022/09/05 03:58:05;;;;;;;6.32;4.75;;;17.80;81.00;;;;;;4973446;28;20004;-61
2022/09/05 04:00:35;;;;;;;7.53;4.75;;;17.80;81.20;;;;;;4974806;28;20132;-62
2022/09/05 04:03:23;;;;;;;6.60;4.45;;;17.80;81.50;;;;;;4994927;28;20480;-61
2022/09/05 04:05:57;;;;;;;5.35;4.65;;;17.80;81.40;;;;;;5001272;28;20042;-61
2022/09/05 04:08:43;;;;;;;7.22;4.63;;;17.70;81.50;;;;;;5006396;28;20042;-61
2022/09/05 04:11:26;;;;;;;7.55;4.97;;;17.70;81.70;;;;;;5003167;28;20504;-61
2022/09/05 04:14:05;;;;;;;6.00;4.70;;;17.70;81.90;;;;;;5005885;28;20049;-61
2022/09/05 04:16:58;;;;;;;9.20;4.65;;;17.60;82.00;;;;;;4990133;28;20504;-62
2022/09/05 04:19:36;;;;;;;9.95;4.60;;;17.60;82.10;;;;;;4997021;28;20759;-61
2022/09/05 04:22:17;;;;;;;6.40;4.45;;;17.60;82.80;;;;;;4993329;28;20045;-62
2022/09/05 04:25:03;;;;;;;10.52;4.57;;;17.60;82.40;;;;;;4993032;28;20085;-61
2022/09/05 04:27:52;;;;;;;6.90;4.82;;;17.60;82.60;;;;;;4975340;28;20053;-61
2022/09/05 04:30:42;;;;;;;9.20;4.97;;;17.50;82.50;;;;;;4992555;28;20088;-61
2022/09/05 04:33:56;;;;;;;5.72;4.90;;;17.50;82.80;;;;;;4994477;28;20057;-62
2022/09/05 04:36:35;;;;;;;10.30;5.35;;;17.50;82.80;;;;;;4958212;28;20045;-61
2022/09/05 04:39:19;;;;;;;7.20;5.15;;;17.50;83.00;;;;;;4991442;28;20052;-61
2022/09/05 04:41:53;;;;;;;9.80;4.90;;;17.50;83.00;;;;;;4978480;28;20046;-61
2022/09/05 04:44:29;;;;;;;9.50;5.00;;;17.50;83.20;;;;;;4991471;28;20058;-62
2022/09/05 04:47:18;;;;;;;6.97;5.30;;;17.50;83.90;;;;;;4964728;28;20519;-61
2022/09/05 04:49:56;;;;;;;6.80;4.75;;;17.50;83.20;;;;;;4973523;28;21531;-62
2022/09/05 04:52:40;;;;;;;5.93;4.78;;;17.40;83.40;;;;;;4990791;28;20148;-62
2022/09/05 04:55:16;;;;;;;7.78;5.07;;;17.40;83.40;;;;;;4992715;28;20061;-63
2022/09/05 04:57:56;;;;;;;8.15;4.88;;;17.40;83.60;;;;;;4996168;28;20500;-63
2022/09/05 05:00:36;;;;;;;8.25;5.30;;;17.40;83.70;;;;;;4997461;28;20093;-62
2022/09/05 05:03:15;;;;;;;5.55;4.95;;;17.40;83.90;;;;;;4976103;28;20403;-62
2022/09/05 05:05:47;;;;;;;10.80;5.55;;;17.30;83.90;;;;;;4991921;28;20590;-63
2022/09/05 05:08:18;;;;;;;6.10;5.50;;;17.30;84.10;;;;;;4993582;28;20523;-63
2022/09/05 05:10:49;;;;;;;8.55;5.13;;;17.30;84.30;;;;;;4974640;28;20049;-63
2022/09/05 05:13:15;;;;;;;6.82;4.90;;;17.30;84.60;;;;;;4987282;28;20129;-62
2022/09/05 05:15:50;;;;;;;7.07;5.22;;;17.30;84.70;;;;;;4986384;28;20042;-62
2022/09/05 05:18:39;;;;;;;7.53;5.30;;;17.30;84.90;;;;;;4981937;28;20058;-62
2022/09/05 05:21:08;;;;;;;13.70;5.30;;;17.20;84.90;;;;;;4984059;28;20149;-62
2022/09/05 05:23:44;;;;;;;7.70;5.65;;;17.20;85.00;;;;;;4982509;28;20053;-62
2022/09/05 05:26:23;;;;;;;5.35;4.55;;;17.20;85.90;;;;;;4985371;28;20045;-62
2022/09/05 05:29:06;;;;;;;8.95;5.22;;;17.20;85.10;;;;;;4949976;28;20057;-63
2022/09/05 05:31:54;;;;;;;9.13;5.18;;;17.20;85.30;;;;;;4987637;28;20081;-62
2022/09/05 05:34:38;;;;;;;7.07;5.30;;;17.20;85.60;;;;;;4965256;28;20088;-62
2022/09/05 05:37:14;;;;;;;8.43;5.43;;;17.20;85.70;;;;;;4984596;28;20077;-62
2022/09/05 05:39:48;;;;;;;9.75;5.30;;;17.20;85.80;;;;;;4973568;28;20050;-62
2022/09/05 05:42:23;;;;;;;7.63;5.60;;;17.20;86.00;;;;;;4963323;28;20057;-62
2022/09/05 05:44:52;;;;;;;9.23;5.30;;;17.30;86.20;;;;;;4981076;28;20054;-62
2022/09/05 05:47:25;;;;;;;7.88;5.20;;;17.30;86.20;;;;;;4981565;28;20054;-62
2022/09/05 05:49:59;;;;;;;;;;;17.30;86.40;;;;;;4989846;28;20141;-62
2022/09/05 05:52:49;;;;;;;6.63;5.40;;;17.30;86.10;;;;;;4987753;28;19921;-63
2022/09/05 05:55:53;;;;;;;10.73;6.20;;;17.30;86.30;;;;;;4986025;28;20061;-62
2022/09/05 05:58:50;;;;;;;7.82;5.93;;;17.40;86.40;;;;;;4963131;28;20049;-62
2022/09/05 06:01:34;;;;;;;9.30;5.65;;;17.40;86.30;;;;;;4988317;28;20093;-62
2022/09/05 06:04:24;;;;;;;9.55;5.57;;;17.40;86.30;;;;;;4966427;28;20049;-62
2022/09/05 06:07:20;;;;;;;15.25;6.03;;;17.40;86.40;;;;;;4972799;28;20045;-63
2022/09/05 06:10:09;;;;;;;9.25;6.50;;;17.50;87.10;;;;;;4956799;28;20073;-59
2022/09/05 06:12:47;;;;;;;6.88;6.07;;;17.50;86.50;;;;;;4949014;28;20058;-58
2022/09/05 06:15:31;;;;;;;15.73;5.70;;;17.50;86.50;;;;;;4990152;28;20041;-59
2022/09/05 06:18:24;;;;;;;10.73;6.28;;;17.60;86.50;;;;;;4992740;28;20496;-59
2022/09/05 06:21:09;;;;;;;9.38;5.63;;;17.60;86.50;;;;;;4995844;28;20065;-59
2022/09/05 06:23:56;;;;;;;6.70;6.00;;;17.70;86.40;;;;;;4994735;28;20120;-59
2022/09/05 06:26:55;;;;;;;10.27;6.07;;;17.70;86.60;;;;;;4992341;28;20045;-59
2022/09/05 06:29:35;;;;;;;11.35;6.65;;;17.70;86.40;;;;;;4991722;28;20139;-58
2022/09/05 06:32:51;;;;;;;10.98;6.25;;;17.80;86.60;;;;;;4994904;28;21768;-59
2022/09/05 06:35:24;;;;;;;11.05;6.20;;;17.90;86.60;;;;;;4953247;28;20057;-59
2022/09/05 06:38:10;;;;;;;13.13;6.53;;;17.90;86.40;;;;;;5001310;28;20050;-59
2022/09/05 06:40:54;;;;;;;8.98;6.35;;;18.00;86.40;;;;;;4985590;28;20088;-59
2022/09/05 06:43:34;;;;;;;8.00;6.10;;;18.00;86.20;;;;;;4968800;28;20116;-59
2022/09/05 06:46:18;;;;;;;7.95;5.88;;;18.10;86.20;;;;;;4999012;28;20054;-59
2022/09/05 06:48:55;;;;;;;10.63;6.43;;;18.20;86.10;;;;;;4994830;28;20635;-59
2022/09/05 06:51:47;;;;;;;10.90;6.13;;;18.20;86.00;;;;;;4966955;28;20076;-59
2022/09/05 06:54:35;;;;;;;16.60;6.75;;;18.40;85.80;;;;;;4995227;28;20049;-60
2022/09/05 06:57:08;;;;;;;13.23;6.57;;;18.40;85.90;;;;;;4975305;28;20149;-58
2022/09/05 06:59:49;;;;;;;10.10;6.72;;;18.50;85.70;;;;;;5002270;28;20115;-58
2022/09/05 07:02:33;;;;;;;9.02;6.05;;;18.60;85.50;;;;;;5007242;28;20042;-60
2022/09/05 07:05:29;;;;;;;12.35;6.45;;;18.60;85.30;;;;;;5007231;28;20045;-59
2022/09/05 07:08:04;;;;;;;14.98;6.55;;;18.70;85.10;;;;;;5003429;28;20045;-59
2022/09/05 07:10:36;;;;;;;9.10;6.20;;;18.80;85.70;;;;;;4994293;28;20049;-59
2022/09/05 07:13:11;;;;;;;11.68;6.97;;;18.80;85.00;;;;;;4993564;28;20494;-59
2022/09/05 07:15:41;;;;;;;11.98;6.25;;;18.90;85.00;;;;;;4993802;28;20077;-59
2022/09/05 07:18:20;;;;;;;10.90;6.60;;;18.90;85.00;;;;;;4977381;28;20523;-59
2022/09/05 07:21:00;;;;;;;8.32;6.25;;;19.00;84.80;;;;;;4996821;28;20061;-59
2022/09/05 07:23:50;;;;;;;11.60;6.60;;;19.10;84.70;;;;;;4997105;28;20388;-58
2022/09/05 07:26:18;;;;;;;8.65;6.25;;;19.20;84.70;;;;;;4995211;28;20073;-59
2022/09/05 07:28:48;;;;;;;12.88;6.30;;;19.30;84.50;;;;;;5001159;28;20050;-60
2022/09/05 07:31:36;;;;;;;11.68;6.53;;;19.40;84.30;;;;;;4996207;28;20042;-59
2022/09/05 07:34:27;;;;;;;9.35;5.90;;;19.50;84.00;;;;;;4978051;28;20465;-59
2022/09/05 07:37:09;;;;;;;9.43;5.95;;;19.60;83.90;;;;;;4997779;28;20050;-60
2022/09/05 07:39:49;;;;;;;9.73;6.25;;;19.70;83.60;;;;;;4980109;28;20041;-59
2022/09/05 07:42:21;;;;;;;10.82;5.90;;;19.90;83.40;;;;;;4978639;28;20496;-59
2022/09/05 07:44:55;;;;;;;10.38;6.10;;;20.00;83.00;;;;;;4998930;28;20843;-59
2022/09/05 07:47:34;;;;;;;10.63;6.20;;;20.20;82.60;;;;;;4999518;28;20060;-59
2022/09/05 07:50:07;;;;;;;13.68;6.45;;;20.40;82.30;;;;;;4980393;28;20049;-59
2022/09/05 07:52:41;;;;;;;11.10;5.97;;;20.50;81.90;;;;;;5004401;28;20058;-59
2022/09/05 07:55:26;;;;;;;12.85;6.15;;;20.70;81.60;;;;;;4997319;28;20049;-60
2022/09/05 07:57:58;;;;;;;13.00;5.72;;;20.80;81.50;;;;;;4997631;28;20045;-58
2022/09/05 08:00:26;;;;;;;13.60;5.85;;;20.90;80.90;;;;;;4994873;28;20048;-59
2022/09/05 08:02:53;;;;;;;8.93;5.82;;;21.10;80.60;;;;;;4999127;28;20396;-60
2022/09/05 08:05:21;;;;;;;8.50;5.68;;;21.20;80.00;;;;;;4997223;28;20129;-58
2022/09/05 08:08:00;;;;;;;8.50;5.20;;;21.40;80.00;;;;;;4980587;28;20115;-59
2022/09/05 08:10:32;;;;;;;8.55;5.07;;;21.50;80.00;;;;;;4995876;28;20176;-58
2022/09/05 08:13:07;;;;;;;13.60;5.40;;;21.60;79.80;;;;;;4996883;28;20065;-59
2022/09/05 08:15:35;;;;;;;11.60;5.22;;;21.80;79.60;;;;;;4996685;28;20542;-59
2022/09/05 08:18:14;;;;;;;10.77;4.93;;;21.90;79.20;;;;;;4995610;28;20136;-58
2022/09/05 08:21:04;;;;;;;10.50;4.80;;;22.10;79.00;;;;;;4984643;28;20096;-60
2022/09/05 08:23:55;;;;;;;7.85;5.35;;;22.20;78.60;;;;;;5002451;28;20504;-59
2022/09/05 08:26:36;;;;;;;9.32;5.57;;;22.40;78.30;;;;;;4995964;28;20049;-60
2022/09/05 08:29:22;;;;;;;6.10;4.97;;;22.40;78.00;;;;;;4996185;28;20073;-59
2022/09/05 08:32:12;;;;;;;10.00;5.93;;;22.50;77.90;;;;;;4996989;28;20048;-59
2022/09/05 08:34:47;;;;;;;7.72;5.10;;;22.70;77.80;;;;;;4994858;28;20062;-59
2022/09/05 08:37:25;;;;;;;8.52;5.28;;;22.80;77.50;;;;;;4994041;28;20124;-59
2022/09/05 08:39:55;;;;;;;4.88;4.32;;;22.90;77.30;;;;;;5005671;28;20049;-59
2022/09/05 08:42:21;;;;;;;13.43;4.82;;;22.90;77.30;;;;;;4998735;28;20045;-59
2022/09/05 08:44:56;;;;;;;9.32;4.32;;;23.00;77.20;;;;;;4994722;28;20082;-59
2022/09/05 08:47:37;;;;;;;8.27;4.55;;;23.10;77.40;;;;;;4994980;28;20780;-59
2022/09/05 08:50:12;;;;;;;8.63;4.93;;;23.20;77.30;;;;;;4995911;28;20531;-59
2022/09/05 08:53:06;;;;;;;7.82;4.50;;;23.30;77.40;;;;;;4978233;28;20405;-59
2022/09/05 08:56:02;;;;;;;9.07;4.30;;;23.50;77.50;;;;;;4996804;28;20168;-58
2022/09/05 08:58:46;;;;;;;12.82;4.95;;;23.70;76.90;;;;;;4997109;28;20069;-59
2022/09/05 09:01:27;;;;;;;8.18;4.28;;;23.80;76.40;;;;;;4995907;28;20135;-60
2022/09/05 09:04:18;;;;;;;8.20;4.50;;;24.00;75.40;;;;;;4995311;28;20062;-60
2022/09/05 09:07:39;;;;;;;5.93;3.65;;;24.20;75.10;;;;;;5007391;28;20041;-60
2022/09/05 09:10:24;;;;;;;12.02;4.45;;;24.40;75.70;;;;;;4914122;29;20059;-60
2022/09/05 09:13:24;;;;;;;11.02;4.85;;;24.50;75.20;;;;;;4992286;28;20582;-59
2022/09/05 09:15:57;;;;;;;14.73;4.72;;;24.80;74.60;;;;;;4994517;28;20076;-59
2022/09/05 09:18:50;;;;;;;6.90;4.38;;;24.90;73.80;;;;;;4995419;28;20136;-59
2022/09/05 09:21:33;;;;;;;10.63;4.03;;;25.10;73.80;;;;;;4961387;28;20151;-59
2022/09/05 09:24:55;;;;;;;8.75;4.07;;;25.20;73.80;;;;;;4995635;28;20096;-59
2022/09/05 09:27:59;;;;;;;9.40;4.10;;;25.40;73.30;;;;;;4925008;28;20102;-59
2022/09/05 09:30:28;;;;;;;7.25;3.53;;;25.60;72.60;;;;;;4887000;28;20306;-59
2022/09/05 09:33:01;;;;;;;8.13;4.00;;;25.80;71.80;;;;;;4986457;28;20057;-59
2022/09/05 09:35:45;;;;;;;7.40;4.10;;;25.90;72.30;;;;;;4997310;28;20410;-59
2022/09/05 09:38:40;;;;;;;12.70;4.28;;;26.00;71.80;;;;;;4996545;28;20084;-59
2022/09/05 09:41:37;;;;;;;7.57;4.28;;;26.20;71.30;;;;;;4986386;28;20050;-59
2022/09/05 09:44:38;;;;;;;11.20;4.28;;;26.20;71.50;;;;;;4997462;28;20130;-59
2022/09/05 09:47:12;;;;;;;4.80;3.53;;;26.30;70.30;;;;;;4968767;28;20061;-60
2022/09/05 09:49:44;;;;;;;4.75;3.47;;;26.40;70.20;;;;;;4979575;28;20080;-60
2022/09/05 09:52:15;;;;;;;9.00;3.75;;;26.50;69.60;;;;;;4993736;28;20068;-60
2022/09/05 09:54:53;;;;;;;7.35;3.58;;;26.70;69.90;;;;;;4994599;28;20042;-59
2022/09/05 09:57:57;;;;;;;11.10;3.70;;;26.70;68.90;;;;;;4993541;28;20160;-59
2022/09/05 10:00:24;;;;;;;9.63;3.67;;;26.80;68.50;;;;;;4922692;28;20068;-59
2022/09/05 10:03:15;;;;;;;9.40;4.30;;;26.90;69.30;;;;;;4994160;28;20100;-59
2022/09/05 10:06:03;;;;;;;8.40;3.78;;;27.00;68.40;;;;;;4994566;28;20053;-60
2022/09/05 10:08:44;;;;;;;8.55;3.42;;;27.10;68.70;;;;;;4995458;28;20053;-60
2022/09/05 10:11:16;;;;;;;10.07;3.58;;;27.20;68.20;;;;;;4996199;28;20084;-58
2022/09/05 10:14:11;;;;;;;5.38;3.22;;;27.30;68.00;;;;;;4996315;28;20049;-59
2022/09/05 10:17:15;;;;;;;7.32;3.15;;;27.40;67.60;;;;;;4994360;28;20153;-59
2022/09/05 10:19:58;;;;;;;9.57;2.83;;;27.50;68.10;;;;;;4992636;28;20506;-59
2022/09/05 10:22:46;;;;;;;8.02;2.90;;;27.60;67.20;;;;;;4991946;28;20504;-60
2022/09/05 10:25:58;;;;;;;9.02;2.70;;;27.80;67.10;;;;;;4995964;28;20057;-59
2022/09/05 10:28:48;;;;;;;7.82;2.50;;;28.00;67.30;;;;;;4996253;28;20052;-60
2022/09/05 10:31:19;;;;;;;6.15;2.45;;;28.20;66.30;;;;;;4994142;28;20060;-60
2022/09/05 10:33:45;;;;;;;4.72;2.50;;;28.20;65.50;;;;;;4995799;28;20049;-60
2022/09/05 10:36:26;;;;;;;5.13;2.67;;;28.30;65.50;;;;;;4992709;28;20468;-60
2022/09/05 10:39:04;;;;;;;4.13;2.38;;;28.50;64.80;;;;;;4993541;28;20042;-60
2022/09/05 10:41:48;;;;;;;3.63;2.20;;;28.60;63.50;;;;;;4995393;28;20112;-60
2022/09/05 10:44:14;;;;;;;4.88;2.25;;;28.80;64.80;;;;;;4994842;28;20045;-58
2022/09/05 10:46:40;;;;;;;7.38;2.53;;;28.90;64.00;;;;;;4993279;28;20045;-60
2022/09/05 10:49:12;;;;;;;5.85;2.38;;;29.10;64.10;;;;;;4994608;28;20491;-60
2022/09/05 10:52:04;;;;;;;4.95;2.38;;;29.40;64.50;;;;;;4994608;28;20042;-60
2022/09/05 10:54:45;;;;;;;4.10;2.10;;;29.50;63.40;;;;;;4995604;28;20546;-61
2022/09/05 10:57:30;;;;;;;4.13;1.90;;;29.50;62.20;;;;;;4994402;28;20064;-60
2022/09/05 10:59:59;;;;;;;5.05;2.10;;;29.60;61.70;;;;;;4996714;28;20037;-61
2022/09/05 11:02:27;;;;;;;2.67;1.80;;;29.70;62.40;;;;;;4998758;28;20757;-60
2022/09/05 11:05:14;;;;;;;3.33;1.92;;;29.90;61.40;;;;;;4996765;28;20104;-59
2022/09/05 11:07:58;;;;;;;4.10;2.10;;;29.90;60.00;;;;;;4997919;28;20058;-60
2022/09/05 11:10:50;;;;;;;3.83;1.80;;;30.00;60.60;;;;;;4998540;28;20072;-59
2022/09/05 11:13:44;;;;;;;7.57;2.00;;;30.10;60.00;;;;;;4998464;28;20439;-60
2022/09/05 11:16:45;;;;;;;3.95;2.00;;;30.20;59.80;;;;;;4995485;28;20473;-60
2022/09/05 11:19:30;;;;;;;4.43;1.80;;;30.40;60.30;;;;;;4980050;28;20185;-60
2022/09/05 11:22:03;;;;;;;6.05;2.00;;;30.50;59.00;;;;;;4998193;28;20049;-59
2022/09/05 11:24:43;;;;;;;3.55;2.15;;;30.60;58.70;;;;;;4956558;28;20050;-60
2022/09/05 11:27:24;;;;;;;3.92;2.03;;;30.60;58.40;;;;;;4994991;28;20133;-60
2022/09/05 11:29:56;;;;;;;2.03;1.67;;;30.50;58.20;;;;;;5000090;28;20068;-60
2022/09/05 11:32:37;;;;;;;4.75;1.83;;;30.50;57.90;;;;;;4996617;28;21027;-60
2022/09/05 11:35:11;;;;;;;7.05;2.30;;;30.60;58.10;;;;;;4996461;28;20049;-60
2022/09/05 11:37:55;;;;;;;8.43;2.58;;;30.70;57.70;;;;;;4994329;28;20730;-59
2022/09/05 11:40:49;;;;;;;2.90;2.00;;;30.80;57.20;;;;;;4996568;28;20045;-60
2022/09/05 11:43:24;;;;;;;3.00;1.90;;;31.00;57.70;;;;;;4996327;28;20053;-60
2022/09/05 11:46:08;;;;;;;6.13;2.50;;;31.10;57.40;;;;;;4974246;28;20451;-60
2022/09/05 11:48:57;;;;;;;3.97;2.00;;;31.30;57.00;;;;;;4977927;28;20128;-60
2022/09/05 11:51:42;;;;;;;2.35;1.90;;;31.50;56.80;;;;;;4996622;28;20543;-60
2022/09/05 11:54:45;;;;;;;4.63;2.10;;;31.60;56.50;;;;;;4995942;28;20835;-60
2022/09/05 11:57:17;;;;;;;2.67;2.35;;;31.70;56.30;;;;;;4995133;28;20046;-60
2022/09/05 11:59:54;;;;;;;5.80;2.03;;;31.80;56.60;;;;;;4988119;28;20626;-60
2022/09/05 12:02:26;;;;;;;4.43;1.95;;;31.80;55.90;;;;;;4996794;28;20123;-60
2022/09/05 12:05:16;;;;;;;5.18;2.08;;;31.80;56.00;;;;;;4979186;28;20045;-60
2022/09/05 12:08:10;;;;;;;8.93;2.15;;;31.90;56.70;;;;;;4994229;28;20496;-59
2022/09/05 12:11:02;;;;;;;3.80;1.80;;;32.00;56.40;;;;;;4994190;28;20049;-60
2022/09/05 12:13:31;;;;;;;4.05;1.80;;;32.10;55.60;;;;;;4993483;28;20045;-60
2022/09/05 12:16:06;;;;;;;3.42;2.30;;;32.30;55.30;;;;;;4997671;28;20125;-60
2022/09/05 12:19:10;;;;;;;4.75;2.10;;;32.40;54.90;;;;;;4992587;28;20077;-60
2022/09/05 12:22:01;;;;;;;6.82;2.03;;;32.50;55.20;;;;;;4997470;28;20059;-60
2022/09/05 12:24:47;;;;;;;3.88;2.22;;;32.70;55.00;;;;;;4977784;28;20520;-59
2022/09/05 12:27:16;;;;;;;4.05;2.00;;;32.80;54.30;;;;;;4964215;28;20049;-60
2022/09/05 12:29:49;;;;;;;2.60;2.00;;;33.00;54.70;;;;;;4978345;28;20085;-60
2022/09/05 12:32:24;;;;;;;9.77;2.40;;;33.10;53.40;;;;;;4996018;28;20408;-60
2022/09/05 12:34:52;;;;;;;3.45;2.15;;;33.10;52.70;;;;;;4993916;28;20050;-59
2022/09/05 12:38:04;;;;;;;7.72;2.03;;;33.10;52.90;;;;;;4996116;28;20607;-60
2022/09/05 12:40:43;;;;;;;3.65;1.90;;;33.10;53.40;;;;;;4969886;28;20057;-60
2022/09/05 12:43:11;;;;;;;5.72;2.10;;;33.10;53.10;;;;;;4995997;28;20049;-60
2022/09/05 12:45:40;;;;;;;2.80;2.13;;;32.90;53.10;;;;;;4993319;28;20587;-61
2022/09/05 12:48:32;;;;;;;6.75;2.10;;;32.80;52.80;;;;;;4995561;28;20060;-58
2022/09/05 12:51:08;;;;;;;4.53;1.85;;;32.70;52.40;;;;;;4999007;28;20045;-60
2022/09/05 12:53:56;;;;;;;3.85;2.15;;;32.70;53.40;;;;;;4979751;28;20074;-60
2022/09/05 12:56:51;;;;;;;9.23;2.53;;;32.70;53.40;;;;;;4995489;28;22099;-60
2022/09/05 12:59:23;;;;;;;8.48;2.20;;;32.90;52.60;;;;;;4977743;28;20058;-60
2022/09/05 13:02:02;;;;;;;4.53;2.30;;;33.00;52.30;;;;;;4997051;28;20168;-60
2022/09/05 13:04:35;;;;;;;1.80;1.70;;;33.20;52.20;;;;;;4995356;28;20095;-61
2022/09/05 13:07:09;;;;;;;4.00;2.40;;;33.20;51.80;;;;;;4994076;28;20055;-60
2022/09/05 13:09:43;;;;;;;3.40;2.20;;;33.20;51.90;;;;;;4994715;28;20487;-61
2022/09/05 13:12:18;;;;;;;5.95;2.30;;;33.40;52.10;;;;;;5003163;28;20124;-60
2022/09/05 13:15:05;;;;;;;3.13;2.08;;;33.50;50.70;;;;;;5002295;28;20056;-60
2022/09/05 13:18:07;;;;;;;4.63;2.15;;;33.40;50.90;;;;;;5001742;28;20514;-60
2022/09/05 13:20:54;;;;;;;7.20;1.83;;;33.30;51.20;;;;;;4993859;28;20665;-60
2022/09/05 13:23:28;;;;;;;4.45;1.80;;;33.20;51.50;;;;;;4983527;28;20068;-60
2022/09/05 13:25:57;;;;;;;2.90;2.15;;;33.30;51.90;;;;;;4992307;28;20053;-59
2022/09/05 13:28:49;;;;;;;2.92;1.98;;;33.40;51.10;;;;;;4993567;28;20042;-60
2022/09/05 13:31:39;;;;;;;6.18;2.00;;;33.50;51.40;;;;;;4994226;28;20108;-60
2022/09/05 13:34:24;;;;;;;5.65;2.40;;;33.70;52.10;;;;;;4989462;28;20435;-60
2022/09/05 13:37:02;;;;;;;4.05;2.10;;;33.90;51.00;;;;;;4994130;28;20045;-60
2022/09/05 13:39:37;;;;;;;6.15;1.95;;;34.20;50.70;;;;;;4994973;28;20457;-61
2022/09/05 13:42:03;;;;;;;2.33;2.00;;;34.40;50.80;;;;;;4995078;28;20038;-61
2022/09/05 13:44:36;;;;;;;5.30;2.10;;;34.50;50.10;;;;;;4991984;28;20542;-61
2022/09/05 13:47:12;;;;;;;1.75;1.65;;;34.50;49.40;;;;;;4993174;28;20070;-61
2022/09/05 13:49:55;;;;;;;3.53;1.80;;;34.60;49.40;;;;;;4989641;28;20164;-61
2022/09/05 13:52:42;;;;;;;3.58;1.92;;;34.70;49.00;;;;;;4994604;28;20052;-60
2022/09/05 13:55:14;;;;;;;3.95;1.90;;;34.80;49.70;;;;;;4991782;28;20176;-61
2022/09/05 13:57:48;;;;;;;4.85;1.98;;;34.90;48.90;;;;;;4992938;28;20060;-61
2022/09/05 14:00:20;;;;;;;2.92;1.95;;;34.90;48.20;;;;;;4993110;28;20066;-60
2022/09/05 14:02:58;;;;;;;4.85;2.00;;;35.00;48.40;;;;;;4993254;28;20045;-61
2022/09/05 14:05:45;;;;;;;5.90;1.60;;;35.20;48.80;;;;;;4993835;28;20054;-61
2022/09/05 14:08:39;;;;;;;3.92;1.90;;;35.30;48.30;;;;;;4993125;28;20054;-61